sensor_id;sensor_type;location;lat;lon;timestamp;P1;durP1;ratioP1;P2;durP2;ratioP2
15504;SDS011;7854;52.184;5.942;2022-08-19T00:05:42;10;;;9;;
15504;SDS011;7854;52.184;5.942;2022-08-19T00:05:47;11;;;10;;
15504;SDS011;7854;52.184;5.942;2022-08-19T00:06:47;9;;;8;;
15504;SDS011;7854;52.184;5.942;2022-08-19T00:09:01;9;;;9;;
15504;SDS011;7854;52.184;5.942;2022-08-19T00:11:15;11;;;10;;
15504;SDS011;7854;52.184;5.942;2022-08-19T00:15:44;9;;;8;;
15504;SDS011;7854;52.184;5.942;2022-08-19T00:17:59;12;;;11;;
15504;SDS011;7854;52.184;5.942;2022-08-19T00:20:15;10;;;10;;
15504;SDS011;7854;52.184;5.942;2022-08-19T00:22:28;12;;;11;;
15504;SDS011;7854;52.184;5.942;2022-08-19T00:24:42;11;;;10;;
15504;SDS011;7854;52.184;5.942;2022-08-19T00:26:57;13;;;12;;
15504;SDS011;7854;52.184;5.942;2022-08-19T00:29:12;24;;;14;;
15504;SDS011;7854;52.184;5.942;2022-08-19T00:31:25;12;;;11;;
15504;SDS011;7854;52.184;5.942;2022-08-19T00:33:40;13;;;13;;
15504;SDS011;7854;52.184;5.942;2022-08-19T00:35:55;13;;;13;;
15504;SDS011;7854;52.184;5.942;2022-08-19T00:38:08;13;;;12;;
15504;SDS011;7854;52.184;5.942;2022-08-19T00:40:23;11;;;10;;
15504;SDS011;7854;52.184;5.942;2022-08-19T00:42:37;13;;;11;;
15504;SDS011;7854;52.184;5.942;2022-08-19T00:44:51;11;;;10;;
15504;SDS011;7854;52.184;5.942;2022-08-19T00:47:06;11;;;10;;
15504;SDS011;7854;52.184;5.942;2022-08-19T00:49:20;10;;;10;;
15504;SDS011;7854;52.184;5.942;2022-08-19T00:51:34;10;;;9;;
15504;SDS011;7854;52.184;5.942;2022-08-19T00:53:48;10;;;9;;
15504;SDS011;7854;52.184;5.942;2022-08-19T00:56:02;7;;;7;;
15504;SDS011;7854;52.184;5.942;2022-08-19T00:58:18;9;;;9;;
15504;SDS011;7854;52.184;5.942;2022-08-19T01:00:31;8;;;8;;
15504;SDS011;7854;52.184;5.942;2022-08-19T01:02:46;11;;;10;;
15504;SDS011;7854;52.184;5.942;2022-08-19T01:05:02;9;;;8;;
15504;SDS011;7854;52.184;5.942;2022-08-19T01:07:15;9;;;8;;
15504;SDS011;7854;52.184;5.942;2022-08-19T01:09:29;12;;;10;;
15504;SDS011;7854;52.184;5.942;2022-08-19T01:11:43;12;;;11;;
15504;SDS011;7854;52.184;5.942;2022-08-19T01:13:58;11;;;9;;
15504;SDS011;7854;52.184;5.942;2022-08-19T01:16:12;9;;;8;;
15504;SDS011;7854;52.184;5.942;2022-08-19T01:18:27;10;;;10;;
15504;SDS011;7854;52.184;5.942;2022-08-19T01:20:42;10;;;9;;
15504;SDS011;7854;52.184;5.942;2022-08-19T01:22:57;10;;;9;;
15504;SDS011;7854;52.184;5.942;2022-08-19T01:25:10;10;;;9;;
15504;SDS011;7854;52.184;5.942;2022-08-19T01:27:25;12;;;11;;
15504;SDS011;7854;52.184;5.942;2022-08-19T01:29:40;10;;;9;;
15504;SDS011;7854;52.184;5.942;2022-08-19T01:31:54;12;;;11;;
15504;SDS011;7854;52.184;5.942;2022-08-19T01:34:08;11;;;11;;
15504;SDS011;7854;52.184;5.942;2022-08-19T01:36:22;12;;;11;;
15504;SDS011;7854;52.184;5.942;2022-08-19T01:38:37;10;;;10;;
15504;SDS011;7854;52.184;5.942;2022-08-19T01:40:50;10;;;9;;
15504;SDS011;7854;52.184;5.942;2022-08-19T01:43:05;11;;;10;;
15504;SDS011;7854;52.184;5.942;2022-08-19T01:45:20;13;;;12;;
15504;SDS011;7854;52.184;5.942;2022-08-19T01:47:34;11;;;10;;
15504;SDS011;7854;52.184;5.942;2022-08-19T01:49:48;12;;;11;;
15504;SDS011;7854;52.184;5.942;2022-08-19T01:52:03;10;;;9;;
15504;SDS011;7854;52.184;5.942;2022-08-19T01:54:17;10;;;9;;
15504;SDS011;7854;52.184;5.942;2022-08-19T01:56:31;11;;;10;;
15504;SDS011;7854;52.184;5.942;2022-08-19T01:58:47;10;;;10;;
15504;SDS011;7854;52.184;5.942;2022-08-19T02:01:00;12;;;11;;
15504;SDS011;7854;52.184;5.942;2022-08-19T02:03:15;13;;;12;;
15504;SDS011;7854;52.184;5.942;2022-08-19T02:05:29;15;;;14;;
15504;SDS011;7854;52.184;5.942;2022-08-19T02:07:44;12;;;11;;
15504;SDS011;7854;52.184;5.942;2022-08-19T02:09:58;11;;;11;;
15504;SDS011;7854;52.184;5.942;2022-08-19T02:12:13;10;;;10;;
15504;SDS011;7854;52.184;5.942;2022-08-19T02:14:27;12;;;11;;
15504;SDS011;7854;52.184;5.942;2022-08-19T02:16:41;11;;;10;;
15504;SDS011;7854;52.184;5.942;2022-08-19T02:18:55;11;;;10;;
15504;SDS011;7854;52.184;5.942;2022-08-19T02:21:09;13;;;11;;
15504;SDS011;7854;52.184;5.942;2022-08-19T02:23:23;10;;;9;;
15504;SDS011;7854;52.184;5.942;2022-08-19T02:25:39;13;;;11;;
15504;SDS011;7854;52.184;5.942;2022-08-19T02:27:53;14;;;13;;
15504;SDS011;7854;52.184;5.942;2022-08-19T02:30:09;13;;;12;;
15504;SDS011;7854;52.184;5.942;2022-08-19T02:32:22;16;;;14;;
15504;SDS011;7854;52.184;5.942;2022-08-19T02:34:36;14;;;13;;
15504;SDS011;7854;52.184;5.942;2022-08-19T02:36:50;13;;;12;;
15504;SDS011;7854;52.184;5.942;2022-08-19T02:39:05;15;;;14;;
15504;SDS011;7854;52.184;5.942;2022-08-19T02:41:20;14;;;13;;
15504;SDS011;7854;52.184;5.942;2022-08-19T02:43:34;14;;;12;;
15504;SDS011;7854;52.184;5.942;2022-08-19T02:45:48;13;;;12;;
15504;SDS011;7854;52.184;5.942;2022-08-19T02:48:03;13;;;12;;
15504;SDS011;7854;52.184;5.942;2022-08-19T02:50:17;11;;;10;;
15504;SDS011;7854;52.184;5.942;2022-08-19T02:52:32;11;;;10;;
15504;SDS011;7854;52.184;5.942;2022-08-19T02:54:46;12;;;11;;
15504;SDS011;7854;52.184;5.942;2022-08-19T02:57:00;11;;;11;;
15504;SDS011;7854;52.184;5.942;2022-08-19T02:59:15;12;;;11;;
15504;SDS011;7854;52.184;5.942;2022-08-19T03:01:30;10;;;9;;
15504;SDS011;7854;52.184;5.942;2022-08-19T03:03:43;13;;;12;;
15504;SDS011;7854;52.184;5.942;2022-08-19T03:06:03;12;;;11;;
15504;SDS011;7854;52.184;5.942;2022-08-19T03:08:13;12;;;11;;
15504;SDS011;7854;52.184;5.942;2022-08-19T03:10:27;14;;;13;;
15504;SDS011;7854;52.184;5.942;2022-08-19T03:12:42;14;;;13;;
15504;SDS011;7854;52.184;5.942;2022-08-19T03:14:56;13;;;13;;
15504;SDS011;7854;52.184;5.942;2022-08-19T03:17:10;13;;;12;;
15504;SDS011;7854;52.184;5.942;2022-08-19T03:19:25;13;;;12;;
15504;SDS011;7854;52.184;5.942;2022-08-19T03:21:39;16;;;15;;
15504;SDS011;7854;52.184;5.942;2022-08-19T03:23:54;17;;;15;;
15504;SDS011;7854;52.184;5.942;2022-08-19T03:26:08;14;;;13;;
15504;SDS011;7854;52.184;5.942;2022-08-19T03:28:23;13;;;12;;
15504;SDS011;7854;52.184;5.942;2022-08-19T03:30:37;16;;;15;;
15504;SDS011;7854;52.184;5.942;2022-08-19T03:32:51;16;;;14;;
15504;SDS011;7854;52.184;5.942;2022-08-19T03:35:06;17;;;16;;
15504;SDS011;7854;52.184;5.942;2022-08-19T03:37:21;16;;;15;;
15504;SDS011;7854;52.184;5.942;2022-08-19T03:39:35;22;;;19;;
15504;SDS011;7854;52.184;5.942;2022-08-19T03:41:50;19;;;17;;
15504;SDS011;7854;52.184;5.942;2022-08-19T03:44:03;18;;;16;;
15504;SDS011;7854;52.184;5.942;2022-08-19T03:46:26;23;;;19;;
15504;SDS011;7854;52.184;5.942;2022-08-19T03:48:33;17;;;16;;
15504;SDS011;7854;52.184;5.942;2022-08-19T03:50:47;18;;;17;;
15504;SDS011;7854;52.184;5.942;2022-08-19T03:53:02;17;;;15;;
15504;SDS011;7854;52.184;5.942;2022-08-19T03:55:16;16;;;15;;
15504;SDS011;7854;52.184;5.942;2022-08-19T03:57:30;16;;;15;;
15504;SDS011;7854;52.184;5.942;2022-08-19T03:59:45;15;;;14;;
15504;SDS011;7854;52.184;5.942;2022-08-19T04:02:00;18;;;16;;
15504;SDS011;7854;52.184;5.942;2022-08-19T04:04:14;16;;;15;;
15504;SDS011;7854;52.184;5.942;2022-08-19T04:06:29;14;;;14;;
15504;SDS011;7854;52.184;5.942;2022-08-19T04:08:44;19;;;15;;
15504;SDS011;7854;52.184;5.942;2022-08-19T04:10:57;14;;;13;;
15504;SDS011;7854;52.184;5.942;2022-08-19T04:13:12;15;;;14;;
15504;SDS011;7854;52.184;5.942;2022-08-19T04:15:26;20;;;18;;
15504;SDS011;7854;52.184;5.942;2022-08-19T04:17:40;14;;;13;;
15504;SDS011;7854;52.184;5.942;2022-08-19T04:19:55;17;;;15;;
15504;SDS011;7854;52.184;5.942;2022-08-19T04:22:09;15;;;14;;
15504;SDS011;7854;52.184;5.942;2022-08-19T04:24:24;19;;;16;;
15504;SDS011;7854;52.184;5.942;2022-08-19T04:26:38;17;;;14;;
15504;SDS011;7854;52.184;5.942;2022-08-19T04:28:53;18;;;16;;
15504;SDS011;7854;52.184;5.942;2022-08-19T04:31:11;24;;;16;;
15504;SDS011;7854;52.184;5.942;2022-08-19T04:33:23;20;;;18;;
15504;SDS011;7854;52.184;5.942;2022-08-19T04:35:36;18;;;16;;
15504;SDS011;7854;52.184;5.942;2022-08-19T04:37:50;20;;;18;;
15504;SDS011;7854;52.184;5.942;2022-08-19T04:40:05;17;;;16;;
15504;SDS011;7854;52.184;5.942;2022-08-19T04:42:18;17;;;15;;
15504;SDS011;7854;52.184;5.942;2022-08-19T04:44:33;17;;;16;;
15504;SDS011;7854;52.184;5.942;2022-08-19T04:46:48;17;;;16;;
15504;SDS011;7854;52.184;5.942;2022-08-19T04:49:03;17;;;15;;
15504;SDS011;7854;52.184;5.942;2022-08-19T04:51:16;15;;;14;;
15504;SDS011;7854;52.184;5.942;2022-08-19T04:53:31;20;;;18;;
15504;SDS011;7854;52.184;5.942;2022-08-19T04:55:45;22;;;20;;
15504;SDS011;7854;52.184;5.942;2022-08-19T04:57:59;20;;;18;;
15504;SDS011;7854;52.184;5.942;2022-08-19T05:00:14;18;;;16;;
15504;SDS011;7854;52.184;5.942;2022-08-19T05:02:28;20;;;18;;
15504;SDS011;7854;52.184;5.942;2022-08-19T05:04:43;19;;;17;;
15504;SDS011;7854;52.184;5.942;2022-08-19T05:06:57;22;;;19;;
15504;SDS011;7854;52.184;5.942;2022-08-19T05:09:12;16;;;15;;
15504;SDS011;7854;52.184;5.942;2022-08-19T05:11:27;18;;;17;;
15504;SDS011;7854;52.184;5.942;2022-08-19T05:13:41;18;;;16;;
15504;SDS011;7854;52.184;5.942;2022-08-19T05:15:56;20;;;18;;
15504;SDS011;7854;52.184;5.942;2022-08-19T05:18:10;17;;;16;;
15504;SDS011;7854;52.184;5.942;2022-08-19T05:20:24;23;;;19;;
15504;SDS011;7854;52.184;5.942;2022-08-19T05:22:38;18;;;16;;
15504;SDS011;7854;52.184;5.942;2022-08-19T05:24:53;22;;;18;;
15504;SDS011;7854;52.184;5.942;2022-08-19T05:27:07;18;;;16;;
15504;SDS011;7854;52.184;5.942;2022-08-19T05:29:22;21;;;19;;
15504;SDS011;7854;52.184;5.942;2022-08-19T05:31:36;19;;;17;;
15504;SDS011;7854;52.184;5.942;2022-08-19T05:33:51;19;;;17;;
15504;SDS011;7854;52.184;5.942;2022-08-19T05:36:05;19;;;16;;
15504;SDS011;7854;52.184;5.942;2022-08-19T05:38:20;17;;;15;;
15504;SDS011;7854;52.184;5.942;2022-08-19T05:40:34;16;;;15;;
15504;SDS011;7854;52.184;5.942;2022-08-19T05:42:48;18;;;16;;
15504;SDS011;7854;52.184;5.942;2022-08-19T05:45:03;15;;;14;;
15504;SDS011;7854;52.184;5.942;2022-08-19T05:47:18;16;;;15;;
15504;SDS011;7854;52.184;5.942;2022-08-19T05:49:32;15;;;14;;
15504;SDS011;7854;52.184;5.942;2022-08-19T05:51:46;14;;;13;;
15504;SDS011;7854;52.184;5.942;2022-08-19T05:54:00;12;;;12;;
15504;SDS011;7854;52.184;5.942;2022-08-19T05:56:15;15;;;14;;
15504;SDS011;7854;52.184;5.942;2022-08-19T05:58:29;14;;;13;;
15504;SDS011;7854;52.184;5.942;2022-08-19T06:00:44;15;;;14;;
15504;SDS011;7854;52.184;5.942;2022-08-19T06:02:58;21;;;15;;
15504;SDS011;7854;52.184;5.942;2022-08-19T06:05:13;15;;;14;;
15504;SDS011;7854;52.184;5.942;2022-08-19T06:07:27;15;;;14;;
15504;SDS011;7854;52.184;5.942;2022-08-19T06:09:42;15;;;14;;
15504;SDS011;7854;52.184;5.942;2022-08-19T06:11:57;11;;;10;;
15504;SDS011;7854;52.184;5.942;2022-08-19T06:14:12;13;;;12;;
15504;SDS011;7854;52.184;5.942;2022-08-19T06:16:25;14;;;13;;
15504;SDS011;7854;52.184;5.942;2022-08-19T06:18:40;15;;;13;;
15504;SDS011;7854;52.184;5.942;2022-08-19T06:20:54;14;;;13;;
15504;SDS011;7854;52.184;5.942;2022-08-19T06:23:08;13;;;12;;
15504;SDS011;7854;52.184;5.942;2022-08-19T06:25:23;18;;;13;;
15504;SDS011;7854;52.184;5.942;2022-08-19T06:27:37;11;;;11;;
15504;SDS011;7854;52.184;5.942;2022-08-19T06:29:52;12;;;11;;
15504;SDS011;7854;52.184;5.942;2022-08-19T06:32:06;10;;;10;;
15504;SDS011;7854;52.184;5.942;2022-08-19T06:34:21;11;;;10;;
15504;SDS011;7854;52.184;5.942;2022-08-19T06:36:36;11;;;11;;
15504;SDS011;7854;52.184;5.942;2022-08-19T06:38:49;10;;;9;;
15504;SDS011;7854;52.184;5.942;2022-08-19T06:41:04;10;;;9;;
15504;SDS011;7854;52.184;5.942;2022-08-19T06:43:18;12;;;11;;
15504;SDS011;7854;52.184;5.942;2022-08-19T06:45:33;10;;;10;;
15504;SDS011;7854;52.184;5.942;2022-08-19T06:47:47;10;;;10;;
15504;SDS011;7854;52.184;5.942;2022-08-19T06:50:02;13;;;12;;
15504;SDS011;7854;52.184;5.942;2022-08-19T06:52:16;15;;;13;;
15504;SDS011;7854;52.184;5.942;2022-08-19T06:56:45;22;;;20;;
15504;SDS011;7854;52.184;5.942;2022-08-19T06:59:00;20;;;18;;
15504;SDS011;7854;52.184;5.942;2022-08-19T07:01:14;21;;;19;;
15504;SDS011;7854;52.184;5.942;2022-08-19T07:05:43;18;;;16;;
15504;SDS011;7854;52.184;5.942;2022-08-19T07:07:57;36;;;19;;
15504;SDS011;7854;52.184;5.942;2022-08-19T07:14:40;27;;;19;;
15504;SDS011;7854;52.184;5.942;2022-08-19T07:16:54;23;;;20;;
15504;SDS011;7854;52.184;5.942;2022-08-19T07:19:20;31;;;23;;
15504;SDS011;7854;52.184;5.942;2022-08-19T07:21:34;27;;;23;;
15504;SDS011;7854;52.184;5.942;2022-08-19T07:23:55;27;;;20;;
15504;SDS011;7854;52.184;5.942;2022-08-19T07:26:16;30;;;22;;
15504;SDS011;7854;52.184;5.942;2022-08-19T07:30:57;30;;;23;;
15504;SDS011;7854;52.184;5.942;2022-08-19T07:33:23;25;;;20;;
15504;SDS011;7854;52.184;5.942;2022-08-19T07:35:38;31;;;19;;
15504;SDS011;7854;52.184;5.942;2022-08-19T07:38:04;25;;;20;;
15504;SDS011;7854;52.184;5.942;2022-08-19T07:40:25;24;;;22;;
15504;SDS011;7854;52.184;5.942;2022-08-19T07:42:45;25;;;22;;
15504;SDS011;7854;52.184;5.942;2022-08-19T07:45:00;21;;;19;;
15504;SDS011;7854;52.184;5.942;2022-08-19T07:47:20;24;;;19;;
15504;SDS011;7854;52.184;5.942;2022-08-19T07:49:41;20;;;18;;
15504;SDS011;7854;52.184;5.942;2022-08-19T07:52:03;29;;;19;;
15504;SDS011;7854;52.184;5.942;2022-08-19T07:54:23;28;;;21;;
15504;SDS011;7854;52.184;5.942;2022-08-19T07:56:43;28;;;24;;
15504;SDS011;7854;52.184;5.942;2022-08-19T07:59:03;45;;;29;;
15504;SDS011;7854;52.184;5.942;2022-08-19T08:01:25;36;;;28;;
15504;SDS011;7854;52.184;5.942;2022-08-19T08:08:12;39;;;28;;
15504;SDS011;7854;52.184;5.942;2022-08-19T08:10:27;35;;;25;;
15504;SDS011;7854;52.184;5.942;2022-08-19T08:12:41;40;;;26;;
15504;SDS011;7854;52.184;5.942;2022-08-19T08:17:10;30;;;24;;
15504;SDS011;7854;52.184;5.942;2022-08-19T08:19:24;28;;;23;;
15504;SDS011;7854;52.184;5.942;2022-08-19T08:22:03;22;;;19;;
